createdAt,value
2019-03-22T00:00:17.650Z,51.03
2019-03-22T00:01:17.821Z,61.28
2019-03-22T00:02:17.996Z,58.35
2019-03-22T00:03:18.167Z,65.19
2019-03-22T00:04:18.340Z,50.54
2019-03-22T00:05:18.513Z,52.25
2019-03-22T00:06:18.686Z,49.07
2019-03-22T00:07:18.865Z,51.03
2019-03-22T00:08:19.029Z,50.29
2019-03-22T00:09:19.202Z,52.49
2019-03-22T00:10:19.389Z,60.30
2019-03-22T00:11:19.547Z,55.66
2019-03-22T00:12:19.724Z,50.78
2019-03-22T00:13:19.904Z,52.49
2019-03-22T00:14:20.076Z,54.20
2019-03-22T00:15:20.244Z,50.05
2019-03-22T00:16:20.418Z,57.13
2019-03-22T00:17:20.650Z,50.29
2019-03-22T00:18:20.767Z,53.47
2019-03-22T00:19:20.942Z,50.05
2019-03-22T00:20:21.111Z,51.03
2019-03-22T00:21:21.294Z,59.08
2019-03-22T00:22:21.450Z,54.20
2019-03-22T00:23:21.620Z,52.73
2019-03-22T00:24:21.795Z,59.81
2019-03-22T00:25:21.982Z,50.78
2019-03-22T00:26:22.148Z,52.73
2019-03-22T00:27:22.312Z,50.29
2019-03-22T00:28:22.488Z,51.03
2019-03-22T00:29:22.664Z,59.81
2019-03-22T00:30:22.827Z,52.73
2019-03-22T00:31:23.010Z,54.44
2019-03-22T00:32:23.175Z,55.42
2019-03-22T00:33:23.359Z,59.81
2019-03-22T00:34:23.516Z,52.98
2019-03-22T00:35:23.694Z,60.79
2019-03-22T00:36:23.869Z,56.40
2019-03-22T00:37:24.043Z,50.54
2019-03-22T00:38:24.211Z,52.25
2019-03-22T00:39:24.387Z,61.04
2019-03-22T00:40:24.565Z,52.49
2019-03-22T00:41:24.731Z,57.13
2019-03-22T00:42:24.903Z,51.76
2019-03-22T00:43:25.074Z,52.98
2019-03-22T00:44:25.250Z,53.71
2019-03-22T00:45:25.417Z,56.88
2019-03-22T00:46:25.588Z,53.71
2019-03-22T00:47:25.767Z,51.76
2019-03-22T00:48:25.940Z,51.03
2019-03-22T00:49:26.118Z,51.27
2019-03-22T00:50:26.300Z,50.78
2019-03-22T00:51:26.476Z,52.25
2019-03-22T00:52:26.628Z,53.71
2019-03-22T00:53:26.802Z,51.27
2019-03-22T00:54:26.973Z,51.51
2019-03-22T00:55:27.147Z,49.56
2019-03-22T00:56:27.329Z,53.22
2019-03-22T00:57:28.626Z,54.69
2019-03-22T00:58:27.650Z,51.03
2019-03-22T00:59:27.830Z,54.20
2019-03-22T01:00:27.999Z,48.10
2019-03-22T01:01:28.172Z,50.78
2019-03-22T01:02:28.342Z,51.76
2019-03-22T01:03:28.518Z,54.20
2019-03-22T01:04:28.685Z,56.64
2019-03-22T01:06:29.025Z,61.77
2019-03-22T01:07:29.195Z,50.05
2019-03-22T01:08:29.378Z,53.96
2019-03-22T01:09:29.550Z,58.11
2019-03-22T01:10:29.713Z,48.58
2019-03-22T01:11:29.889Z,62.26
2019-03-22T01:12:30.063Z,59.33
2019-03-22T01:13:30.234Z,49.56
2019-03-22T01:14:30.414Z,57.86
2019-03-22T01:15:30.576Z,51.27
2019-03-22T01:16:30.752Z,51.27
2019-03-22T01:17:30.927Z,54.20
2019-03-22T01:18:31.094Z,51.51
2019-03-22T01:19:31.268Z,50.78
2019-03-22T01:20:31.441Z,56.40
2019-03-22T01:21:31.603Z,51.03
2019-03-22T01:22:31.777Z,51.03
2019-03-22T01:23:31.950Z,67.14
2019-03-22T01:24:32.124Z,53.96
2019-03-22T01:25:32.288Z,52.00
2019-03-22T01:26:32.483Z,55.66
2019-03-22T01:27:40.470Z,56.15
2019-03-22T01:28:32.785Z,49.32
2019-03-22T01:29:32.960Z,67.63
2019-03-22T01:30:33.131Z,57.86
2019-03-22T01:31:33.306Z,51.51
2019-03-22T01:32:33.490Z,51.27
2019-03-22T01:33:33.662Z,51.03
2019-03-22T01:34:33.830Z,56.40
2019-03-22T01:35:34.002Z,51.51
2019-03-22T01:36:34.175Z,50.29
2019-03-22T01:37:34.345Z,56.40
2019-03-22T01:38:34.520Z,51.51
2019-03-22T01:39:34.690Z,51.27
2019-03-22T01:40:34.872Z,58.35
2019-03-22T01:41:35.048Z,52.49
2019-03-22T01:42:35.211Z,53.22
2019-03-22T01:43:35.382Z,62.74
2019-03-22T01:44:35.558Z,54.69
2019-03-22T01:45:35.741Z,62.26
2019-03-22T01:46:35.902Z,58.11
2019-03-22T01:47:36.075Z,50.78
2019-03-22T01:48:36.249Z,55.18
2019-03-22T01:49:36.424Z,52.25
2019-03-22T01:50:36.593Z,56.64
2019-03-22T01:51:36.772Z,49.56
2019-03-22T01:52:36.938Z,48.83
2019-03-22T01:53:37.117Z,75.44
2019-03-22T01:55:37.446Z,49.32
2019-03-22T01:56:37.619Z,52.00
2019-03-22T01:57:37.794Z,52.25
2019-03-22T01:58:37.985Z,50.54
2019-03-22T01:59:38.146Z,51.51
2019-03-22T02:00:38.318Z,52.98
2019-03-22T02:01:38.491Z,51.03
2019-03-22T02:02:38.662Z,48.58
2019-03-22T02:03:38.835Z,52.00
2019-03-22T02:04:39.005Z,59.08
2019-03-22T02:05:39.176Z,50.54
2019-03-22T02:06:39.356Z,52.25
2019-03-22T02:07:39.517Z,56.88
2019-03-22T02:08:39.685Z,49.80
2019-03-22T02:09:39.861Z,49.32
2019-03-22T02:10:40.031Z,50.78
2019-03-22T02:11:40.194Z,59.57
2019-03-22T02:12:40.359Z,50.05
2019-03-22T02:13:40.528Z,54.69
2019-03-22T02:14:40.698Z,51.76
2019-03-22T02:15:40.869Z,52.25
2019-03-22T02:16:41.041Z,57.37
2019-03-22T02:17:41.216Z,50.54
2019-03-22T02:18:41.387Z,51.03
2019-03-22T02:19:41.563Z,56.88
2019-03-22T02:20:41.737Z,54.69
2019-03-22T02:21:41.911Z,50.05
2019-03-22T02:22:42.081Z,50.54
2019-03-22T02:23:42.251Z,54.69
2019-03-22T02:24:42.431Z,51.76
2019-03-22T02:25:42.594Z,49.56
2019-03-22T02:26:42.766Z,50.54
2019-03-22T02:27:42.958Z,51.51
2019-03-22T02:28:43.124Z,50.05
2019-03-22T02:29:44.452Z,59.08
2019-03-22T02:30:43.465Z,50.54
2019-03-22T02:31:43.643Z,49.80
2019-03-22T02:32:43.810Z,46.88
2019-03-22T02:33:43.969Z,50.54
2019-03-22T02:34:44.135Z,51.51
2019-03-22T02:35:44.309Z,53.71
2019-03-22T02:36:44.480Z,51.76
2019-03-22T02:37:44.657Z,53.47
2019-03-22T02:38:44.834Z,50.78
2019-03-22T02:39:45.116Z,51.76
2019-03-22T02:40:45.178Z,49.32
2019-03-22T02:41:45.351Z,51.03
2019-03-22T02:42:45.518Z,49.32
2019-03-22T02:43:45.688Z,53.22
2019-03-22T02:44:45.880Z,51.51
2019-03-22T02:45:46.027Z,53.96
2019-03-22T02:46:46.217Z,49.56
2019-03-22T02:47:46.374Z,54.44
2019-03-22T02:48:46.546Z,51.27
2019-03-22T02:49:46.729Z,51.03
2019-03-22T02:50:46.893Z,49.32
2019-03-22T02:51:47.066Z,56.88
2019-03-22T02:52:47.241Z,55.42
2019-03-22T02:53:47.413Z,51.03
2019-03-22T02:54:47.580Z,58.35
2019-03-22T02:55:47.888Z,53.71
2019-03-22T02:56:47.926Z,50.78
2019-03-22T02:57:48.131Z,49.80
2019-03-22T02:58:48.263Z,50.54
2019-03-22T02:59:48.443Z,48.34
2019-03-22T03:00:48.613Z,49.80
2019-03-22T03:01:48.777Z,52.00
2019-03-22T03:02:48.956Z,54.20
2019-03-22T03:03:49.125Z,54.20
2019-03-22T03:04:49.302Z,50.29
2019-03-22T03:05:49.462Z,50.78
2019-03-22T03:06:49.639Z,64.94
2019-03-22T03:07:49.888Z,52.00
2019-03-22T03:08:49.979Z,54.20
2019-03-22T03:09:50.149Z,53.96
2019-03-22T03:10:50.331Z,55.18
2019-03-22T03:11:50.489Z,54.20
2019-03-22T03:12:50.673Z,51.27
2019-03-22T03:13:50.832Z,56.64
2019-03-22T03:14:51.012Z,55.18
2019-03-22T03:15:51.175Z,53.47
2019-03-22T03:16:51.351Z,56.15
2019-03-22T03:17:51.520Z,54.44
2019-03-22T03:18:51.695Z,61.04
2019-03-22T03:19:51.871Z,52.73
2019-03-22T03:20:52.042Z,53.71
2019-03-22T03:21:52.212Z,62.01
2019-03-22T03:22:52.383Z,65.92
2019-03-22T03:23:52.553Z,56.40
2019-03-22T03:24:52.728Z,57.37
2019-03-22T03:25:52.903Z,55.66
2019-03-22T03:26:53.068Z,56.15
2019-03-22T03:27:53.240Z,60.30
2019-03-22T03:28:53.411Z,59.57
2019-03-22T03:29:53.587Z,55.91
2019-03-22T03:30:53.776Z,55.66
2019-03-22T03:31:53.987Z,58.84
2019-03-22T03:32:54.118Z,57.13
2019-03-22T03:33:54.285Z,58.11
2019-03-22T03:34:54.468Z,56.15
2019-03-22T03:35:54.616Z,56.15
2019-03-22T03:36:54.807Z,62.26
2019-03-22T03:37:54.965Z,62.74
2019-03-22T03:38:55.142Z,61.28
2019-03-22T03:39:55.316Z,60.55
2019-03-22T03:40:55.489Z,61.52
2019-03-22T03:41:55.661Z,60.30
2019-03-22T03:42:55.829Z,59.33
2019-03-22T03:43:56.008Z,59.81
2019-03-22T03:44:56.177Z,61.28
2019-03-22T03:45:56.344Z,60.06
2019-03-22T03:46:56.526Z,64.94
2019-03-22T03:47:56.691Z,61.28
2019-03-22T03:48:56.871Z,60.55
2019-03-22T03:49:57.033Z,59.57
2019-03-22T03:50:57.205Z,58.35
2019-03-22T03:51:57.372Z,59.57
2019-03-22T03:52:57.546Z,58.59
2019-03-22T03:53:57.718Z,59.08
2019-03-22T03:54:57.890Z,58.11
2019-03-22T03:55:58.062Z,61.28
2019-03-22T03:56:58.231Z,58.35
2019-03-22T03:57:58.406Z,58.35
2019-03-22T03:58:58.572Z,58.35
2019-03-22T03:59:58.747Z,57.37
2019-03-22T04:00:58.924Z,57.37
2019-03-22T04:01:59.089Z,59.08
2019-03-22T04:02:59.270Z,59.33
2019-03-22T04:03:59.436Z,58.11
2019-03-22T04:04:59.605Z,58.84
2019-03-22T04:05:59.782Z,57.86
2019-03-22T04:06:59.955Z,55.91
2019-03-22T04:08:00.125Z,53.47
2019-03-22T04:09:00.297Z,55.42
2019-03-22T04:10:00.646Z,59.33
2019-03-22T04:11:00.641Z,55.18
2019-03-22T04:12:00.812Z,55.42
2019-03-22T04:13:00.992Z,54.93
2019-03-22T04:14:01.156Z,54.20
2019-03-22T04:15:01.332Z,55.66
2019-03-22T04:16:01.498Z,57.86
2019-03-22T04:17:01.668Z,56.88
2019-03-22T04:18:01.846Z,57.86
2019-03-22T04:19:02.010Z,57.13
2019-03-22T04:20:02.179Z,57.86
2019-03-22T04:21:02.353Z,57.13
2019-03-22T04:22:02.521Z,56.64
2019-03-22T04:23:02.695Z,60.55
2019-03-22T04:24:02.860Z,61.52
2019-03-22T04:25:03.041Z,61.77
2019-03-22T04:26:03.207Z,60.55
2019-03-22T04:27:03.373Z,62.01
2019-03-22T04:28:03.566Z,59.33
2019-03-22T04:29:07.637Z,66.65
2019-03-22T04:30:03.889Z,63.72
2019-03-22T04:31:04.052Z,67.87
2019-03-22T04:32:04.221Z,58.59
2019-03-22T04:33:06.521Z,59.33
2019-03-22T04:34:04.566Z,67.14
2019-03-22T04:35:04.741Z,57.62
2019-03-22T04:36:04.910Z,55.91
2019-03-22T04:37:05.081Z,59.33
2019-03-22T04:38:05.251Z,53.96
2019-03-22T04:39:05.425Z,57.62
2019-03-22T04:40:05.599Z,61.52
2019-03-22T04:41:05.760Z,53.71
2019-03-22T04:42:05.942Z,54.69
2019-03-22T04:43:06.112Z,57.86
2019-03-22T04:44:06.279Z,53.71
2019-03-22T04:45:06.461Z,55.66
2019-03-22T04:46:06.625Z,61.28
2019-03-22T04:47:06.811Z,59.57
2019-03-22T04:48:06.967Z,65.92
2019-03-22T04:49:07.140Z,66.65
2019-03-22T04:50:07.310Z,66.16
2019-03-22T04:51:07.478Z,61.77
2019-03-22T04:52:07.650Z,60.06
2019-03-22T04:53:07.818Z,62.01
2019-03-22T04:54:07.988Z,74.95
2019-03-22T04:55:08.161Z,55.18
2019-03-22T04:56:08.338Z,60.06
2019-03-22T04:57:08.510Z,56.64
2019-03-22T04:58:08.682Z,66.16
2019-03-22T04:59:18.351Z,56.64
2019-03-22T05:00:09.026Z,69.58
2019-03-22T05:01:09.196Z,69.82
2019-03-22T05:02:09.367Z,59.33
2019-03-22T05:03:09.543Z,58.11
2019-03-22T05:04:09.715Z,56.15
2019-03-22T05:05:09.884Z,65.43
2019-03-22T05:06:10.056Z,67.14
2019-03-22T05:07:10.228Z,67.63
2019-03-22T05:08:10.401Z,59.33
2019-03-22T05:09:10.573Z,62.74
2019-03-22T05:10:10.739Z,56.40
2019-03-22T05:11:10.941Z,63.48
2019-03-22T05:12:11.082Z,62.01
2019-03-22T05:13:11.259Z,61.04
2019-03-22T05:14:11.432Z,64.21
2019-03-22T05:15:11.602Z,66.65
2019-03-22T05:16:11.772Z,62.74
2019-03-22T05:17:11.944Z,60.30
2019-03-22T05:18:12.116Z,67.14
2019-03-22T05:19:12.284Z,61.52
2019-03-22T05:20:12.467Z,63.96
2019-03-22T05:21:12.632Z,65.43
2019-03-22T05:22:12.799Z,66.65
2019-03-22T05:23:12.972Z,63.96
2019-03-22T05:24:13.144Z,69.09
2019-03-22T05:25:13.318Z,70.31
2019-03-22T05:26:13.503Z,66.41
2019-03-22T05:27:13.653Z,68.12
2019-03-22T05:28:13.826Z,73.24
2019-03-22T05:29:14.032Z,57.62
2019-03-22T05:30:14.295Z,68.12
2019-03-22T05:31:14.439Z,69.09
2019-03-22T05:32:14.612Z,65.92
2019-03-22T05:33:14.781Z,62.99
2019-03-22T05:34:14.951Z,67.87
2019-03-22T05:35:15.131Z,58.84
2019-03-22T05:36:15.293Z,62.26
2019-03-22T05:37:15.467Z,63.48
2019-03-22T05:38:15.645Z,64.94
2019-03-22T05:39:15.797Z,67.14
2019-03-22T05:40:15.968Z,83.50
2019-03-22T05:41:16.151Z,65.92
2019-03-22T05:42:16.308Z,64.94
2019-03-22T05:43:16.488Z,72.27
2019-03-22T05:44:16.644Z,60.06
2019-03-22T05:45:16.822Z,70.56
2019-03-22T05:46:16.985Z,63.23
2019-03-22T05:47:17.158Z,74.46
2019-03-22T05:48:17.343Z,70.07
2019-03-22T05:49:17.496Z,68.12
2019-03-22T05:50:17.668Z,57.62
2019-03-22T05:51:17.850Z,62.99
2019-03-22T05:52:18.010Z,78.86
2019-03-22T05:53:18.180Z,79.35
2019-03-22T05:54:18.351Z,85.69
2019-03-22T05:55:18.529Z,67.14
2019-03-22T05:56:18.695Z,68.12
2019-03-22T05:57:18.867Z,68.85
2019-03-22T05:58:19.042Z,71.29
2019-03-22T05:59:19.211Z,69.34
2019-03-22T06:00:19.383Z,80.08
2019-03-22T06:01:19.553Z,81.30
2019-03-22T06:02:19.726Z,81.79
2019-03-22T06:04:20.071Z,81.54
2019-03-22T06:05:20.236Z,81.79
2019-03-22T06:06:20.419Z,80.08
2019-03-22T06:07:20.582Z,78.61
2019-03-22T06:08:20.753Z,65.67
2019-03-22T06:09:20.930Z,68.60
2019-03-22T06:10:28.722Z,71.29
2019-03-22T06:11:28.888Z,70.31
2019-03-22T06:12:21.430Z,74.22
2019-03-22T06:13:21.710Z,82.03
2019-03-22T06:14:21.764Z,74.22
2019-03-22T06:15:22.525Z,73.97
2019-03-22T06:16:22.098Z,65.67
2019-03-22T06:17:22.270Z,61.04
2019-03-22T06:18:22.461Z,64.21
2019-03-22T06:19:22.624Z,62.99
2019-03-22T06:20:22.791Z,71.29
2019-03-22T06:21:22.961Z,68.12
2019-03-22T06:22:23.134Z,70.31
2019-03-22T06:23:23.310Z,71.29
2019-03-22T06:24:23.489Z,80.08
2019-03-22T06:25:23.662Z,81.79
2019-03-22T06:26:23.828Z,75.93
2019-03-22T06:27:24.002Z,79.59
2019-03-22T06:28:24.179Z,80.32
2019-03-22T06:29:24.353Z,71.04
2019-03-22T06:30:24.525Z,65.43
2019-03-22T06:31:24.699Z,67.63
2019-03-22T06:32:24.882Z,75.20
2019-03-22T06:33:25.056Z,68.60
2019-03-22T06:34:25.219Z,65.67
2019-03-22T06:35:25.397Z,61.52
2019-03-22T06:36:25.569Z,81.54
2019-03-22T06:37:25.757Z,68.12
2019-03-22T06:38:25.923Z,83.25
2019-03-22T06:39:26.090Z,68.85
2019-03-22T06:40:26.261Z,66.65
2019-03-22T06:41:26.431Z,60.79
2019-03-22T06:42:26.606Z,67.63
2019-03-22T06:43:26.808Z,66.65
2019-03-22T06:44:28.184Z,70.56
2019-03-22T06:45:27.192Z,69.58
2019-03-22T06:46:27.379Z,70.80
2019-03-22T06:47:27.552Z,73.00
2019-03-22T06:48:27.715Z,80.57
2019-03-22T06:49:27.890Z,72.75
2019-03-22T06:50:28.087Z,76.66
2019-03-22T06:51:28.275Z,70.80
2019-03-22T06:52:28.437Z,69.34
2019-03-22T06:53:28.611Z,70.56
2019-03-22T06:54:31.914Z,75.20
2019-03-22T06:55:28.957Z,66.41
2019-03-22T06:56:29.145Z,73.00
2019-03-22T06:57:29.370Z,64.94
2019-03-22T06:58:29.513Z,68.36
2019-03-22T06:59:29.692Z,66.16
2019-03-22T07:00:29.869Z,76.66
2019-03-22T07:01:30.045Z,64.45
2019-03-22T07:02:30.222Z,67.63
2019-03-22T07:03:30.449Z,71.29
2019-03-22T07:04:30.571Z,73.49
2019-03-22T07:05:30.744Z,70.31
2019-03-22T07:06:30.921Z,66.65
2019-03-22T07:07:31.106Z,72.51
2019-03-22T07:08:31.274Z,71.78
2019-03-22T07:09:31.449Z,67.63
2019-03-22T07:10:31.625Z,71.53
2019-03-22T07:11:31.807Z,71.78
2019-03-22T07:12:31.982Z,65.92
2019-03-22T07:13:32.161Z,69.09
2019-03-22T07:14:32.362Z,65.19
2019-03-22T07:15:32.534Z,67.38
2019-03-22T07:16:32.711Z,74.71
2019-03-22T07:17:32.900Z,87.40
2019-03-22T07:18:33.068Z,68.60
2019-03-22T07:19:33.246Z,86.67
2019-03-22T07:20:33.433Z,64.70
2019-03-22T07:21:33.602Z,70.07
2019-03-22T07:22:33.783Z,67.14
2019-03-22T07:23:33.963Z,60.30
2019-03-22T07:24:34.148Z,67.38
2019-03-22T07:25:34.312Z,67.38
2019-03-22T07:26:34.495Z,69.58
2019-03-22T07:27:34.676Z,67.14
2019-03-22T07:28:34.856Z,69.34
2019-03-22T07:29:35.037Z,66.65
2019-03-22T07:30:35.210Z,65.43
2019-03-22T07:31:35.935Z,68.60
2019-03-22T07:32:35.567Z,68.60
2019-03-22T07:33:35.740Z,67.14
2019-03-22T07:34:35.930Z,63.72
2019-03-22T07:35:36.114Z,66.65
2019-03-22T07:36:36.279Z,63.96
2019-03-22T07:37:36.447Z,66.16
2019-03-22T07:38:36.638Z,68.36
2019-03-22T07:39:36.812Z,70.07
2019-03-22T07:41:37.175Z,68.36
2019-03-22T07:42:37.348Z,64.94
2019-03-22T07:43:37.529Z,62.26
2019-03-22T07:44:37.710Z,63.23
2019-03-22T07:45:37.896Z,67.63
2019-03-22T07:50:10.529Z,71.78
2019-03-22T07:51:10.725Z,65.19
2019-03-22T07:52:10.886Z,62.01
2019-03-22T07:53:11.074Z,63.96
2019-03-22T07:54:11.244Z,62.99
2019-03-22T07:55:11.428Z,75.93
2019-03-22T07:56:11.607Z,60.55
2019-03-22T07:57:11.793Z,62.50
2019-03-22T07:58:11.969Z,59.33
2019-03-22T07:59:12.145Z,62.74
2019-03-22T08:00:12.346Z,68.36
2019-03-22T08:01:12.510Z,70.56
2019-03-22T08:02:12.712Z,62.01
2019-03-22T08:03:12.880Z,64.21
2019-03-22T08:04:13.058Z,65.43
2019-03-22T08:05:13.243Z,67.87
2019-03-22T08:06:13.419Z,60.30
2019-03-22T08:07:13.603Z,69.34
2019-03-22T08:08:13.784Z,63.72
2019-03-22T08:09:13.988Z,61.28
2019-03-22T08:10:14.163Z,65.92
2019-03-22T08:11:14.368Z,62.50
2019-03-22T08:12:14.505Z,68.60
2019-03-22T08:13:14.705Z,65.43
2019-03-22T08:14:16.476Z,61.52
2019-03-22T08:15:15.061Z,65.92
2019-03-22T08:16:15.264Z,66.65
2019-03-22T08:17:15.420Z,75.44
2019-03-22T08:18:15.596Z,68.12
2019-03-22T08:19:15.791Z,68.36
2019-03-22T08:20:15.973Z,61.52
2019-03-22T08:21:16.143Z,68.85
2019-03-22T08:22:16.359Z,65.67
2019-03-22T08:23:16.509Z,62.99
2019-03-22T08:24:16.678Z,62.50
2019-03-22T08:25:16.869Z,62.99
2019-03-22T08:26:17.042Z,62.50
2019-03-22T08:27:17.233Z,62.26
2019-03-22T08:28:17.439Z,62.26
2019-03-22T08:29:17.628Z,63.23
2019-03-22T08:30:17.798Z,68.60
2019-03-22T08:31:17.959Z,62.01
2019-03-22T08:32:18.956Z,61.04
2019-03-22T08:33:18.351Z,61.04
2019-03-22T08:34:18.527Z,60.30
2019-03-22T08:35:18.728Z,69.58
2019-03-22T08:36:18.898Z,62.99
2019-03-22T08:37:19.096Z,63.23
2019-03-22T08:38:19.282Z,66.16
2019-03-22T08:39:19.466Z,61.77
2019-03-22T08:40:19.628Z,64.45
2019-03-22T08:41:19.828Z,67.87
2019-03-22T08:42:20.034Z,62.99
2019-03-22T08:43:20.167Z,67.63
2019-03-22T08:44:20.469Z,64.45
2019-03-22T08:45:20.536Z,69.09
2019-03-22T08:46:20.738Z,64.21
2019-03-22T08:47:32.802Z,62.01
2019-03-22T08:48:21.115Z,65.92
2019-03-22T08:49:21.346Z,69.09
2019-03-22T08:50:21.483Z,61.77
2019-03-22T08:51:21.640Z,74.22
2019-03-22T08:52:21.836Z,69.09
2019-03-22T08:53:22.007Z,63.48
2019-03-22T08:54:22.174Z,64.94
2019-03-22T08:55:22.366Z,64.94
2019-03-22T08:56:22.576Z,61.77
2019-03-22T08:57:24.942Z,61.77
2019-03-22T08:58:23.870Z,66.65
2019-03-22T08:59:23.121Z,62.50
2019-03-22T09:00:23.262Z,72.51
2019-03-22T09:01:23.443Z,72.02
2019-03-22T09:02:23.654Z,66.41
2019-03-22T09:03:23.872Z,63.48
2019-03-22T09:04:24.050Z,67.38
2019-03-22T09:05:24.274Z,70.31
2019-03-22T09:06:24.365Z,85.94
2019-03-22T09:07:24.830Z,80.32
2019-03-22T09:08:25.505Z,65.67
2019-03-22T09:09:24.880Z,67.38
2019-03-22T09:10:25.105Z,61.77
2019-03-22T09:11:25.247Z,66.89
2019-03-22T09:12:26.934Z,65.92
2019-03-22T09:13:25.636Z,62.50
2019-03-22T09:14:25.858Z,62.99
2019-03-22T09:15:26.045Z,67.87
2019-03-22T09:16:26.125Z,63.23
2019-03-22T09:17:26.314Z,71.29
2019-03-22T09:18:26.489Z,63.96
2019-03-22T09:19:26.691Z,72.02
2019-03-22T09:20:26.858Z,61.04
2019-03-22T09:21:27.040Z,65.92
2019-03-22T09:22:27.213Z,66.65
2019-03-22T09:23:27.401Z,65.92
2019-03-22T09:24:38.606Z,68.36
2019-03-22T09:25:27.806Z,71.04
2019-03-22T09:26:27.954Z,64.94
2019-03-22T09:27:28.120Z,63.72
2019-03-22T09:28:28.352Z,59.81
2019-03-22T09:29:28.504Z,70.56
2019-03-22T09:30:28.705Z,70.56
2019-03-22T09:31:28.836Z,65.67
2019-03-22T09:32:29.040Z,63.48
2019-03-22T09:33:29.192Z,67.14
2019-03-22T09:34:34.023Z,63.23
2019-03-22T09:35:29.576Z,66.16
2019-03-22T09:36:29.743Z,63.72
2019-03-22T09:37:29.894Z,68.60
2019-03-22T09:38:30.141Z,70.07
2019-03-22T09:39:30.283Z,69.58
2019-03-22T09:40:30.443Z,84.23
2019-03-22T09:41:30.645Z,71.53
2019-03-22T09:42:30.811Z,65.43
2019-03-22T09:43:31.012Z,66.89
2019-03-22T09:44:42.866Z,63.72
2019-03-22T09:45:31.455Z,70.07
2019-03-22T09:46:31.588Z,65.43
2019-03-22T09:47:31.712Z,68.36
2019-03-22T09:48:31.960Z,75.44
2019-03-22T09:49:32.058Z,67.14
2019-03-22T09:50:32.339Z,69.82
2019-03-22T09:51:32.464Z,65.43
2019-03-22T09:52:33.816Z,64.70
2019-03-22T09:53:32.824Z,65.19
2019-03-22T09:54:33.002Z,63.72
2019-03-22T09:55:33.185Z,77.15
2019-03-22T09:56:46.085Z,67.87
2019-03-22T09:57:33.626Z,63.72
2019-03-22T09:58:33.724Z,68.36
2019-03-22T09:59:33.939Z,64.45
2019-03-22T10:00:34.094Z,68.12
2019-03-22T10:01:34.284Z,63.23
2019-03-22T10:02:34.466Z,67.38
2019-03-22T10:03:34.680Z,68.12
2019-03-22T10:04:34.838Z,67.38
2019-03-22T10:05:35.060Z,63.48
2019-03-22T10:06:35.214Z,63.48
2019-03-22T10:07:35.391Z,70.31
2019-03-22T10:08:35.586Z,70.07
2019-03-22T10:09:35.789Z,68.12
2019-03-22T10:10:36.002Z,70.31
2019-03-22T10:11:36.106Z,68.60
2019-03-22T10:12:36.292Z,68.60
2019-03-22T10:13:36.455Z,60.55
2019-03-22T10:14:36.656Z,64.70
2019-03-22T10:15:36.823Z,66.65
2019-03-22T10:16:37.002Z,64.94
2019-03-22T10:17:37.252Z,61.28
2019-03-22T10:18:37.384Z,60.06
2019-03-22T10:19:37.803Z,62.99
2019-03-22T10:20:37.810Z,79.59
2019-03-22T10:21:38.008Z,79.83
2019-03-22T10:22:38.151Z,80.32
2019-03-22T10:23:38.371Z,81.79
2019-03-22T10:24:38.521Z,79.83
2019-03-22T10:25:38.694Z,81.79
2019-03-22T10:26:38.970Z,81.54
2019-03-22T10:27:54.119Z,81.79
2019-03-22T10:28:39.684Z,80.32
2019-03-22T10:29:39.860Z,80.57
2019-03-22T10:30:39.535Z,82.52
2019-03-22T10:31:39.747Z,70.56
2019-03-22T10:32:40.000Z,64.21
2019-03-22T10:33:40.298Z,64.70
2019-03-22T10:34:40.371Z,70.31
2019-03-22T10:35:47.015Z,61.28
2019-03-22T10:36:40.736Z,65.92
2019-03-22T10:37:41.078Z,70.80
2019-03-22T10:38:50.318Z,63.72
2019-03-22T10:39:41.482Z,62.50
2019-03-22T10:40:43.417Z,62.50
2019-03-22T10:41:43.599Z,64.45
2019-03-22T10:42:41.984Z,69.09
2019-03-22T10:43:41.917Z,70.07
2019-03-22T10:44:42.257Z,71.53
2019-03-22T10:45:42.340Z,66.41
2019-03-22T10:46:42.582Z,61.28
2019-03-22T10:47:42.684Z,64.21
2019-03-22T10:48:42.942Z,67.14
2019-03-22T10:49:43.216Z,64.94
2019-03-22T10:50:43.228Z,62.99
2019-03-22T10:51:56.079Z,67.87
2019-03-22T10:52:43.548Z,64.21
2019-03-22T10:53:43.754Z,62.99
2019-03-22T10:54:43.896Z,69.34
2019-03-22T10:55:44.098Z,71.78
2019-03-22T10:56:44.278Z,69.58
2019-03-22T10:57:44.480Z,62.01
2019-03-22T10:58:44.658Z,73.97
2019-03-22T10:59:44.856Z,60.06
2019-03-22T11:00:44.998Z,68.60
2019-03-22T11:01:52.325Z,82.28
2019-03-22T11:02:45.368Z,82.28
2019-03-22T11:03:46.797Z,82.76
2019-03-22T11:04:45.838Z,82.03
2019-03-22T11:05:47.523Z,83.74
2019-03-22T11:06:48.602Z,80.32
2019-03-22T11:07:47.386Z,64.21
2019-03-22T11:08:50.281Z,61.77
2019-03-22T11:09:46.950Z,59.81
2019-03-22T11:10:47.075Z,62.74
2019-03-22T11:11:47.244Z,60.06
2019-03-22T11:12:47.495Z,62.01
2019-03-22T11:13:47.718Z,59.08
2019-03-22T11:15:09.434Z,71.53
2019-03-22T11:15:53.278Z,61.28
2019-03-22T11:16:49.263Z,60.30
2019-03-22T11:17:54.407Z,61.52
2019-03-22T11:19:05.247Z,60.55
2019-03-22T11:19:50.042Z,62.99
2019-03-22T11:20:49.223Z,60.79
2019-03-22T11:21:53.832Z,76.17
2019-03-22T11:22:50.193Z,62.26
2019-03-22T11:23:51.076Z,62.26
2019-03-22T11:24:51.075Z,61.04
2019-03-22T11:25:50.887Z,64.21
2019-03-22T11:26:51.724Z,60.55
2019-03-22T11:27:52.039Z,62.26
2019-03-22T11:28:51.922Z,67.87
2019-03-22T11:29:51.285Z,62.26
2019-03-22T11:34:28.819Z,59.81
2019-03-22T11:35:26.740Z,62.01
2019-03-22T11:36:33.036Z,60.55
2019-03-22T11:37:27.541Z,68.36
2019-03-22T11:38:41.895Z,67.87
2019-03-22T11:39:26.940Z,60.55
2019-03-22T11:40:30.092Z,59.57
2019-03-22T11:41:47.920Z,69.09
2019-03-22T11:42:28.906Z,68.12
2019-03-22T11:46:19.870Z,59.81
2019-03-22T11:47:20.974Z,65.92
2019-03-22T11:48:22.740Z,62.99
2019-03-22T11:49:23.757Z,59.08
2019-03-22T11:50:20.727Z,65.92
2019-03-22T11:51:24.107Z,62.74
2019-03-22T11:52:22.239Z,62.50
2019-03-22T11:53:21.377Z,63.72
2019-03-22T11:54:24.923Z,69.09
2019-03-22T11:55:21.667Z,61.28
2019-03-22T11:56:21.821Z,71.04
2019-03-22T11:57:22.061Z,66.65
2019-03-22T11:59:22.396Z,64.21
2019-03-22T12:00:22.548Z,68.60
2019-03-22T12:01:22.920Z,69.34
2019-03-22T12:02:22.933Z,67.14
2019-03-22T12:03:23.084Z,63.96
2019-03-22T12:04:23.260Z,69.09
2019-03-22T12:05:23.456Z,65.67
2019-03-22T12:06:23.605Z,66.16
2019-03-22T12:07:23.870Z,70.80
2019-03-22T12:08:25.505Z,60.79
2019-03-22T12:09:24.122Z,69.34
2019-03-22T12:10:24.288Z,63.96
2019-03-22T12:11:24.481Z,73.00
2019-03-22T12:12:25.810Z,61.77
2019-03-22T12:13:25.345Z,62.99
2019-03-22T12:14:25.110Z,67.63
2019-03-22T12:15:26.507Z,67.87
2019-03-22T12:16:25.661Z,72.27
2019-03-22T12:17:25.693Z,62.26
2019-03-22T12:18:25.918Z,64.94
2019-03-22T12:19:26.067Z,67.14
2019-03-22T12:20:26.259Z,69.34
2019-03-22T12:21:26.462Z,65.43
2019-03-22T12:22:26.662Z,65.43
2019-03-22T12:23:26.991Z,63.72
2019-03-22T12:24:27.066Z,63.23
2019-03-22T12:25:27.373Z,64.21
2019-03-22T12:26:27.515Z,63.23
2019-03-22T12:27:36.436Z,68.60
2019-03-22T12:28:28.096Z,69.82
2019-03-22T12:29:28.049Z,69.34
2019-03-22T12:30:28.242Z,74.22
2019-03-22T12:31:28.421Z,69.34
2019-03-22T12:32:32.411Z,66.65
2019-03-22T12:33:28.940Z,67.63
2019-03-22T12:34:29.099Z,67.14
2019-03-22T12:35:29.196Z,67.38
2019-03-22T12:36:29.442Z,67.63
2019-03-22T12:37:29.540Z,66.65
2019-03-22T12:38:29.790Z,65.19
2019-03-22T12:39:30.031Z,66.89
2019-03-22T12:40:30.194Z,67.63
2019-03-22T12:41:30.327Z,66.65
2019-03-22T12:42:30.508Z,66.65
2019-03-22T12:43:31.193Z,70.31
2019-03-22T12:44:31.206Z,72.75
2019-03-22T12:45:33.087Z,81.30
2019-03-22T12:46:33.037Z,66.16
2019-03-22T12:47:31.400Z,66.16
2019-03-22T12:48:31.731Z,63.48
2019-03-22T12:49:36.284Z,66.16
2019-03-22T12:50:32.016Z,77.64
2019-03-22T12:51:32.174Z,65.67
2019-03-22T12:52:32.438Z,63.48
2019-03-22T12:53:32.466Z,61.77
2019-03-22T12:54:32.625Z,60.55
2019-03-22T12:55:32.765Z,62.99
2019-03-22T12:56:32.940Z,64.94
2019-03-22T12:57:33.191Z,69.82
2019-03-22T12:58:33.443Z,66.41
2019-03-22T12:59:35.750Z,62.01
2019-03-22T13:00:34.806Z,65.19
2019-03-22T13:01:34.472Z,70.56
2019-03-22T13:02:42.059Z,68.60
2019-03-22T13:03:34.999Z,70.80
2019-03-22T13:04:34.696Z,65.43
2019-03-22T13:05:35.000Z,62.01
2019-03-22T13:06:35.150Z,64.21
2019-03-22T13:07:35.352Z,61.52
2019-03-22T13:08:36.108Z,61.52
2019-03-22T13:09:35.680Z,63.23